sensor_id;sensor_type;location;lat;lon;timestamp;P1;durP1;ratioP1;P2;durP2;ratioP2
3068;SDS011;1545;51.728;8.796;2022-12-18T00:03:46;30.53;;;12.93;;
3068;SDS011;1545;51.728;8.796;2022-12-18T00:06:12;33.93;;;12.00;;
3068;SDS011;1545;51.728;8.796;2022-12-18T00:08:38;29.43;;;12.40;;
3068;SDS011;1545;51.728;8.796;2022-12-18T00:11:05;27.97;;;12.60;;
3068;SDS011;1545;51.728;8.796;2022-12-18T00:13:32;26.57;;;12.33;;
3068;SDS011;1545;51.728;8.796;2022-12-18T00:16:02;29.07;;;12.87;;
3068;SDS011;1545;51.728;8.796;2022-12-18T00:18:28;26.33;;;12.10;;
3068;SDS011;1545;51.728;8.796;2022-12-18T00:20:57;29.20;;;12.57;;
3068;SDS011;1545;51.728;8.796;2022-12-18T00:23:25;26.47;;;12.33;;
3068;SDS011;1545;51.728;8.796;2022-12-18T00:25:51;25.97;;;11.93;;
3068;SDS011;1545;51.728;8.796;2022-12-18T00:28:16;28.43;;;12.40;;
3068;SDS011;1545;51.728;8.796;2022-12-18T00:30:42;25.20;;;11.73;;
3068;SDS011;1545;51.728;8.796;2022-12-18T00:33:07;23.80;;;12.10;;
3068;SDS011;1545;51.728;8.796;2022-12-18T00:35:33;22.67;;;11.07;;
3068;SDS011;1545;51.728;8.796;2022-12-18T00:37:58;22.73;;;10.70;;
3068;SDS011;1545;51.728;8.796;2022-12-18T00:40:24;21.93;;;10.80;;
3068;SDS011;1545;51.728;8.796;2022-12-18T00:42:49;24.47;;;11.57;;
3068;SDS011;1545;51.728;8.796;2022-12-18T00:45:25;23.17;;;10.97;;
3068;SDS011;1545;51.728;8.796;2022-12-18T00:47:51;37.47;;;10.43;;
3068;SDS011;1545;51.728;8.796;2022-12-18T00:50:17;21.97;;;9.93;;
3068;SDS011;1545;51.728;8.796;2022-12-18T00:52:43;22.03;;;10.50;;
3068;SDS011;1545;51.728;8.796;2022-12-18T00:55:09;21.00;;;10.20;;
3068;SDS011;1545;51.728;8.796;2022-12-18T00:57:35;25.40;;;11.87;;
3068;SDS011;1545;51.728;8.796;2022-12-18T01:00:01;21.60;;;10.50;;
3068;SDS011;1545;51.728;8.796;2022-12-18T01:02:28;22.00;;;9.90;;
3068;SDS011;1545;51.728;8.796;2022-12-18T01:04:54;22.17;;;10.27;;
3068;SDS011;1545;51.728;8.796;2022-12-18T01:07:19;24.27;;;10.30;;
3068;SDS011;1545;51.728;8.796;2022-12-18T01:09:45;20.07;;;9.93;;
3068;SDS011;1545;51.728;8.796;2022-12-18T01:12:10;21.73;;;10.13;;
3068;SDS011;1545;51.728;8.796;2022-12-18T01:14:36;22.27;;;9.97;;
3068;SDS011;1545;51.728;8.796;2022-12-18T01:17:03;21.07;;;9.40;;
3068;SDS011;1545;51.728;8.796;2022-12-18T01:19:29;19.27;;;9.73;;
3068;SDS011;1545;51.728;8.796;2022-12-18T01:21:54;25.73;;;10.57;;
3068;SDS011;1545;51.728;8.796;2022-12-18T01:24:20;24.97;;;10.33;;
3068;SDS011;1545;51.728;8.796;2022-12-18T01:26:45;23.67;;;9.80;;
3068;SDS011;1545;51.728;8.796;2022-12-18T01:29:11;21.77;;;10.13;;
3068;SDS011;1545;51.728;8.796;2022-12-18T01:31:36;26.67;;;10.07;;
3068;SDS011;1545;51.728;8.796;2022-12-18T01:34:03;19.47;;;9.40;;
3068;SDS011;1545;51.728;8.796;2022-12-18T01:36:31;19.63;;;9.73;;
3068;SDS011;1545;51.728;8.796;2022-12-18T01:39:03;25.80;;;10.40;;
3068;SDS011;1545;51.728;8.796;2022-12-18T01:41:35;23.10;;;9.17;;
3068;SDS011;1545;51.728;8.796;2022-12-18T01:47:30;19.50;;;9.00;;
3068;SDS011;1545;51.728;8.796;2022-12-18T01:50:28;20.43;;;9.33;;
3068;SDS011;1545;51.728;8.796;2022-12-18T01:52:55;21.03;;;9.80;;
3068;SDS011;1545;51.728;8.796;2022-12-18T01:55:29;17.83;;;9.47;;
3068;SDS011;1545;51.728;8.796;2022-12-18T01:57:57;21.63;;;9.77;;
3068;SDS011;1545;51.728;8.796;2022-12-18T02:00:25;21.43;;;9.63;;
3068;SDS011;1545;51.728;8.796;2022-12-18T02:02:51;20.83;;;8.90;;
3068;SDS011;1545;51.728;8.796;2022-12-18T02:05:34;17.23;;;9.30;;
3068;SDS011;1545;51.728;8.796;2022-12-18T02:08:26;20.93;;;9.17;;
3068;SDS011;1545;51.728;8.796;2022-12-18T02:18:51;20.27;;;9.63;;
3068;SDS011;1545;51.728;8.796;2022-12-18T02:24:11;19.47;;;8.93;;
3068;SDS011;1545;51.728;8.796;2022-12-18T02:26:50;21.47;;;8.67;;
3068;SDS011;1545;51.728;8.796;2022-12-18T02:29:36;20.97;;;9.57;;
3068;SDS011;1545;51.728;8.796;2022-12-18T02:32:11;18.00;;;9.03;;
3068;SDS011;1545;51.728;8.796;2022-12-18T02:34:41;21.23;;;9.30;;
3068;SDS011;1545;51.728;8.796;2022-12-18T02:37:11;18.80;;;8.90;;
3068;SDS011;1545;51.728;8.796;2022-12-18T02:39:40;18.17;;;9.60;;
3068;SDS011;1545;51.728;8.796;2022-12-18T02:42:08;19.33;;;9.53;;
3068;SDS011;1545;51.728;8.796;2022-12-18T02:44:41;18.30;;;9.47;;
3068;SDS011;1545;51.728;8.796;2022-12-18T02:47:12;21.53;;;10.23;;
3068;SDS011;1545;51.728;8.796;2022-12-18T02:55:19;21.67;;;10.53;;
3068;SDS011;1545;51.728;8.796;2022-12-18T02:58:02;23.07;;;10.03;;
3068;SDS011;1545;51.728;8.796;2022-12-18T03:04:04;25.90;;;11.67;;
3068;SDS011;1545;51.728;8.796;2022-12-18T03:06:37;22.67;;;10.87;;
3068;SDS011;1545;51.728;8.796;2022-12-18T03:09:10;28.47;;;11.47;;
3068;SDS011;1545;51.728;8.796;2022-12-18T03:11:41;21.07;;;11.63;;
3068;SDS011;1545;51.728;8.796;2022-12-18T03:14:30;25.87;;;11.93;;
3068;SDS011;1545;51.728;8.796;2022-12-18T03:17:00;26.40;;;11.57;;
3068;SDS011;1545;51.728;8.796;2022-12-18T03:19:28;21.87;;;11.07;;
3068;SDS011;1545;51.728;8.796;2022-12-18T03:21:57;25.23;;;12.53;;
3068;SDS011;1545;51.728;8.796;2022-12-18T03:24:26;28.27;;;12.73;;
3068;SDS011;1545;51.728;8.796;2022-12-18T03:26:54;26.37;;;12.77;;
3068;SDS011;1545;51.728;8.796;2022-12-18T03:29:25;26.50;;;12.23;;
3068;SDS011;1545;51.728;8.796;2022-12-18T03:31:57;28.93;;;13.37;;
3068;SDS011;1545;51.728;8.796;2022-12-18T03:34:30;27.20;;;13.43;;
3068;SDS011;1545;51.728;8.796;2022-12-18T03:36:58;27.67;;;13.17;;
3068;SDS011;1545;51.728;8.796;2022-12-18T03:39:27;34.17;;;14.13;;
3068;SDS011;1545;51.728;8.796;2022-12-18T03:44:41;30.20;;;14.33;;
3068;SDS011;1545;51.728;8.796;2022-12-18T03:47:16;29.87;;;14.40;;
3068;SDS011;1545;51.728;8.796;2022-12-18T03:52:36;28.53;;;13.53;;
3068;SDS011;1545;51.728;8.796;2022-12-18T03:55:08;26.33;;;13.23;;
3068;SDS011;1545;51.728;8.796;2022-12-18T03:57:35;31.43;;;14.37;;
3068;SDS011;1545;51.728;8.796;2022-12-18T04:00:09;32.30;;;14.77;;
3068;SDS011;1545;51.728;8.796;2022-12-18T04:02:43;32.90;;;14.90;;
3068;SDS011;1545;51.728;8.796;2022-12-18T04:05:13;30.43;;;14.80;;
3068;SDS011;1545;51.728;8.796;2022-12-18T04:07:40;31.87;;;14.93;;
3068;SDS011;1545;51.728;8.796;2022-12-18T04:10:07;34.60;;;15.50;;
3068;SDS011;1545;51.728;8.796;2022-12-18T04:12:37;30.77;;;14.83;;
3068;SDS011;1545;51.728;8.796;2022-12-18T04:15:03;32.33;;;15.20;;
3068;SDS011;1545;51.728;8.796;2022-12-18T04:17:29;36.73;;;15.80;;
3068;SDS011;1545;51.728;8.796;2022-12-18T04:19:55;30.87;;;15.20;;
3068;SDS011;1545;51.728;8.796;2022-12-18T04:22:20;33.73;;;15.20;;
3068;SDS011;1545;51.728;8.796;2022-12-18T04:24:46;29.07;;;14.30;;
3068;SDS011;1545;51.728;8.796;2022-12-18T04:27:12;31.13;;;14.93;;
3068;SDS011;1545;51.728;8.796;2022-12-18T04:29:38;35.93;;;16.30;;
3068;SDS011;1545;51.728;8.796;2022-12-18T04:32:03;28.57;;;14.63;;
3068;SDS011;1545;51.728;8.796;2022-12-18T04:34:29;30.80;;;14.77;;
3068;SDS011;1545;51.728;8.796;2022-12-18T04:36:55;37.73;;;16.10;;
3068;SDS011;1545;51.728;8.796;2022-12-18T04:39:21;34.40;;;14.53;;
3068;SDS011;1545;51.728;8.796;2022-12-18T04:41:46;34.80;;;15.87;;
3068;SDS011;1545;51.728;8.796;2022-12-18T04:44:12;35.70;;;15.33;;
3068;SDS011;1545;51.728;8.796;2022-12-18T04:46:38;31.73;;;14.83;;
3068;SDS011;1545;51.728;8.796;2022-12-18T04:49:03;29.70;;;15.63;;
3068;SDS011;1545;51.728;8.796;2022-12-18T04:51:29;36.33;;;16.40;;
3068;SDS011;1545;51.728;8.796;2022-12-18T04:53:54;38.17;;;16.50;;
3068;SDS011;1545;51.728;8.796;2022-12-18T04:56:20;34.17;;;16.17;;
3068;SDS011;1545;51.728;8.796;2022-12-18T04:58:46;34.33;;;17.07;;
3068;SDS011;1545;51.728;8.796;2022-12-18T05:01:12;36.33;;;17.07;;
3068;SDS011;1545;51.728;8.796;2022-12-18T05:03:39;35.50;;;16.90;;
3068;SDS011;1545;51.728;8.796;2022-12-18T05:06:05;36.80;;;15.73;;
3068;SDS011;1545;51.728;8.796;2022-12-18T05:08:32;33.80;;;15.83;;
3068;SDS011;1545;51.728;8.796;2022-12-18T05:10:59;37.57;;;16.40;;
3068;SDS011;1545;51.728;8.796;2022-12-18T05:13:25;33.50;;;15.90;;
3068;SDS011;1545;51.728;8.796;2022-12-18T05:15:52;34.23;;;16.30;;
3068;SDS011;1545;51.728;8.796;2022-12-18T05:18:18;33.47;;;15.97;;
3068;SDS011;1545;51.728;8.796;2022-12-18T05:20:43;34.63;;;16.77;;
3068;SDS011;1545;51.728;8.796;2022-12-18T05:23:09;35.63;;;16.70;;
3068;SDS011;1545;51.728;8.796;2022-12-18T05:25:34;37.90;;;16.47;;
3068;SDS011;1545;51.728;8.796;2022-12-18T05:28:00;34.33;;;16.47;;
3068;SDS011;1545;51.728;8.796;2022-12-18T05:30:25;33.83;;;16.17;;
3068;SDS011;1545;51.728;8.796;2022-12-18T05:32:51;28.03;;;14.40;;
3068;SDS011;1545;51.728;8.796;2022-12-18T05:35:16;29.37;;;14.03;;
3068;SDS011;1545;51.728;8.796;2022-12-18T05:37:42;27.27;;;13.93;;
3068;SDS011;1545;51.728;8.796;2022-12-18T05:40:08;29.90;;;13.50;;
3068;SDS011;1545;51.728;8.796;2022-12-18T05:42:34;27.43;;;13.03;;
3068;SDS011;1545;51.728;8.796;2022-12-18T05:44:59;26.67;;;12.70;;
3068;SDS011;1545;51.728;8.796;2022-12-18T05:47:26;26.83;;;13.00;;
3068;SDS011;1545;51.728;8.796;2022-12-18T05:49:51;26.10;;;12.43;;
3068;SDS011;1545;51.728;8.796;2022-12-18T05:52:17;22.80;;;11.87;;
3068;SDS011;1545;51.728;8.796;2022-12-18T05:54:42;23.87;;;11.80;;
3068;SDS011;1545;51.728;8.796;2022-12-18T05:57:08;23.57;;;11.37;;
3068;SDS011;1545;51.728;8.796;2022-12-18T05:59:34;26.23;;;12.53;;
3068;SDS011;1545;51.728;8.796;2022-12-18T06:01:59;23.13;;;11.67;;
3068;SDS011;1545;51.728;8.796;2022-12-18T06:04:26;24.03;;;11.57;;
3068;SDS011;1545;51.728;8.796;2022-12-18T06:06:55;24.93;;;12.30;;
3068;SDS011;1545;51.728;8.796;2022-12-18T06:09:20;21.93;;;12.07;;
3068;SDS011;1545;51.728;8.796;2022-12-18T06:11:46;24.27;;;12.60;;
3068;SDS011;1545;51.728;8.796;2022-12-18T06:14:11;25.87;;;12.63;;
3068;SDS011;1545;51.728;8.796;2022-12-18T06:16:37;26.07;;;12.70;;
3068;SDS011;1545;51.728;8.796;2022-12-18T06:19:03;26.37;;;13.27;;
3068;SDS011;1545;51.728;8.796;2022-12-18T06:21:30;24.80;;;12.07;;
3068;SDS011;1545;51.728;8.796;2022-12-18T06:23:57;24.57;;;12.67;;
3068;SDS011;1545;51.728;8.796;2022-12-18T06:26:22;25.17;;;12.30;;
3068;SDS011;1545;51.728;8.796;2022-12-18T06:28:48;26.37;;;12.50;;
3068;SDS011;1545;51.728;8.796;2022-12-18T06:31:14;23.30;;;12.43;;
3068;SDS011;1545;51.728;8.796;2022-12-18T06:33:40;27.40;;;12.83;;
3068;SDS011;1545;51.728;8.796;2022-12-18T06:36:06;26.13;;;12.47;;
3068;SDS011;1545;51.728;8.796;2022-12-18T06:38:34;26.77;;;12.83;;
3068;SDS011;1545;51.728;8.796;2022-12-18T06:41:06;25.87;;;12.27;;
3068;SDS011;1545;51.728;8.796;2022-12-18T06:43:42;25.57;;;12.00;;
3068;SDS011;1545;51.728;8.796;2022-12-18T06:46:08;27.97;;;13.13;;
3068;SDS011;1545;51.728;8.796;2022-12-18T06:48:34;26.53;;;12.10;;
3068;SDS011;1545;51.728;8.796;2022-12-18T06:51:00;24.87;;;12.10;;
3068;SDS011;1545;51.728;8.796;2022-12-18T06:53:26;25.50;;;12.50;;
3068;SDS011;1545;51.728;8.796;2022-12-18T06:55:52;29.17;;;13.57;;
3068;SDS011;1545;51.728;8.796;2022-12-18T06:58:24;29.40;;;14.10;;
3068;SDS011;1545;51.728;8.796;2022-12-18T07:00:50;30.27;;;13.23;;
3068;SDS011;1545;51.728;8.796;2022-12-18T07:03:15;25.87;;;13.23;;
3068;SDS011;1545;51.728;8.796;2022-12-18T07:05:41;28.03;;;13.07;;
3068;SDS011;1545;51.728;8.796;2022-12-18T07:08:06;31.73;;;13.80;;
3068;SDS011;1545;51.728;8.796;2022-12-18T07:10:32;28.33;;;13.63;;
3068;SDS011;1545;51.728;8.796;2022-12-18T07:12:57;31.97;;;13.67;;
3068;SDS011;1545;51.728;8.796;2022-12-18T07:15:23;29.80;;;14.37;;
3068;SDS011;1545;51.728;8.796;2022-12-18T07:17:48;30.43;;;14.37;;
3068;SDS011;1545;51.728;8.796;2022-12-18T07:20:14;32.87;;;14.30;;
3068;SDS011;1545;51.728;8.796;2022-12-18T07:22:39;29.20;;;13.97;;
3068;SDS011;1545;51.728;8.796;2022-12-18T07:25:05;28.47;;;14.93;;
3068;SDS011;1545;51.728;8.796;2022-12-18T07:27:31;31.47;;;14.40;;
3068;SDS011;1545;51.728;8.796;2022-12-18T07:29:57;29.73;;;15.20;;
3068;SDS011;1545;51.728;8.796;2022-12-18T07:32:22;30.03;;;14.50;;
3068;SDS011;1545;51.728;8.796;2022-12-18T07:34:48;30.27;;;14.97;;
3068;SDS011;1545;51.728;8.796;2022-12-18T07:37:14;31.83;;;14.63;;
3068;SDS011;1545;51.728;8.796;2022-12-18T07:39:39;32.97;;;14.00;;
3068;SDS011;1545;51.728;8.796;2022-12-18T07:42:05;30.60;;;14.93;;
3068;SDS011;1545;51.728;8.796;2022-12-18T07:44:49;34.77;;;16.33;;
3068;SDS011;1545;51.728;8.796;2022-12-18T07:47:14;30.20;;;15.57;;
3068;SDS011;1545;51.728;8.796;2022-12-18T07:49:40;33.43;;;15.90;;
3068;SDS011;1545;51.728;8.796;2022-12-18T07:52:05;34.03;;;16.20;;
3068;SDS011;1545;51.728;8.796;2022-12-18T07:54:31;33.17;;;15.67;;
3068;SDS011;1545;51.728;8.796;2022-12-18T07:56:56;34.23;;;16.67;;
3068;SDS011;1545;51.728;8.796;2022-12-18T07:59:22;35.67;;;16.27;;
3068;SDS011;1545;51.728;8.796;2022-12-18T08:01:47;34.90;;;17.53;;
3068;SDS011;1545;51.728;8.796;2022-12-18T08:04:13;36.27;;;16.43;;
3068;SDS011;1545;51.728;8.796;2022-12-18T08:06:38;42.67;;;17.40;;
3068;SDS011;1545;51.728;8.796;2022-12-18T08:09:04;37.50;;;16.60;;
3068;SDS011;1545;51.728;8.796;2022-12-18T08:11:30;36.83;;;16.20;;
3068;SDS011;1545;51.728;8.796;2022-12-18T08:13:56;41.90;;;15.90;;
3068;SDS011;1545;51.728;8.796;2022-12-18T08:16:22;35.47;;;16.67;;
3068;SDS011;1545;51.728;8.796;2022-12-18T08:18:48;33.63;;;15.33;;
3068;SDS011;1545;51.728;8.796;2022-12-18T08:21:17;31.03;;;15.33;;
3068;SDS011;1545;51.728;8.796;2022-12-18T08:23:45;31.50;;;15.37;;
3068;SDS011;1545;51.728;8.796;2022-12-18T08:26:11;34.40;;;15.90;;
3068;SDS011;1545;51.728;8.796;2022-12-18T08:28:37;32.00;;;15.77;;
3068;SDS011;1545;51.728;8.796;2022-12-18T08:31:03;33.57;;;16.10;;
3068;SDS011;1545;51.728;8.796;2022-12-18T08:33:29;32.57;;;15.43;;
3068;SDS011;1545;51.728;8.796;2022-12-18T08:35:55;32.53;;;15.13;;
3068;SDS011;1545;51.728;8.796;2022-12-18T08:38:20;32.00;;;15.23;;
3068;SDS011;1545;51.728;8.796;2022-12-18T08:40:47;34.20;;;15.63;;
3068;SDS011;1545;51.728;8.796;2022-12-18T08:43:13;32.50;;;16.13;;
3068;SDS011;1545;51.728;8.796;2022-12-18T08:45:57;32.87;;;15.40;;
3068;SDS011;1545;51.728;8.796;2022-12-18T08:48:22;33.33;;;15.83;;
3068;SDS011;1545;51.728;8.796;2022-12-18T08:50:55;35.83;;;15.90;;
3068;SDS011;1545;51.728;8.796;2022-12-18T08:53:22;31.67;;;15.50;;
3068;SDS011;1545;51.728;8.796;2022-12-18T08:55:50;30.73;;;15.47;;
3068;SDS011;1545;51.728;8.796;2022-12-18T08:58:15;30.30;;;15.17;;
3068;SDS011;1545;51.728;8.796;2022-12-18T09:00:41;31.17;;;16.00;;
3068;SDS011;1545;51.728;8.796;2022-12-18T09:03:13;34.57;;;16.10;;
3068;SDS011;1545;51.728;8.796;2022-12-18T09:05:40;40.77;;;16.60;;
3068;SDS011;1545;51.728;8.796;2022-12-18T09:08:05;31.30;;;15.07;;
3068;SDS011;1545;51.728;8.796;2022-12-18T09:10:31;34.53;;;15.37;;
3068;SDS011;1545;51.728;8.796;2022-12-18T09:12:57;31.70;;;14.43;;
3068;SDS011;1545;51.728;8.796;2022-12-18T09:15:23;33.83;;;15.60;;
3068;SDS011;1545;51.728;8.796;2022-12-18T09:17:48;35.10;;;16.07;;
3068;SDS011;1545;51.728;8.796;2022-12-18T09:20:15;29.60;;;15.33;;
3068;SDS011;1545;51.728;8.796;2022-12-18T09:22:41;27.53;;;14.03;;
3068;SDS011;1545;51.728;8.796;2022-12-18T09:25:06;31.30;;;15.23;;
3068;SDS011;1545;51.728;8.796;2022-12-18T09:27:33;27.03;;;13.60;;
3068;SDS011;1545;51.728;8.796;2022-12-18T09:29:59;29.57;;;14.33;;
3068;SDS011;1545;51.728;8.796;2022-12-18T09:32:24;29.03;;;14.20;;
3068;SDS011;1545;51.728;8.796;2022-12-18T09:34:50;26.03;;;13.80;;
3068;SDS011;1545;51.728;8.796;2022-12-18T09:37:15;23.93;;;13.27;;
3068;SDS011;1545;51.728;8.796;2022-12-18T09:39:41;27.10;;;14.17;;
3068;SDS011;1545;51.728;8.796;2022-12-18T09:42:09;21.67;;;12.10;;
3068;SDS011;1545;51.728;8.796;2022-12-18T09:44:43;25.93;;;13.43;;
3068;SDS011;1545;51.728;8.796;2022-12-18T09:47:13;26.40;;;13.37;;
3068;SDS011;1545;51.728;8.796;2022-12-18T09:49:54;21.97;;;11.23;;
3068;SDS011;1545;51.728;8.796;2022-12-18T09:55:22;22.50;;;11.50;;
3068;SDS011;1545;51.728;8.796;2022-12-18T10:00:34;20.57;;;11.07;;
3068;SDS011;1545;51.728;8.796;2022-12-18T10:03:08;21.07;;;10.93;;
3068;SDS011;1545;51.728;8.796;2022-12-18T10:08:45;19.10;;;10.70;;
3068;SDS011;1545;51.728;8.796;2022-12-18T10:11:27;20.40;;;11.73;;
3068;SDS011;1545;51.728;8.796;2022-12-18T10:14:19;23.33;;;11.03;;
3068;SDS011;1545;51.728;8.796;2022-12-18T10:16:59;19.30;;;10.70;;
3068;SDS011;1545;51.728;8.796;2022-12-18T10:19:37;18.37;;;10.27;;
3068;SDS011;1545;51.728;8.796;2022-12-18T10:25:03;19.00;;;10.67;;
3068;SDS011;1545;51.728;8.796;2022-12-18T10:27:48;19.33;;;10.43;;
3068;SDS011;1545;51.728;8.796;2022-12-18T10:30:19;18.47;;;10.27;;
3068;SDS011;1545;51.728;8.796;2022-12-18T10:32:46;20.80;;;11.00;;
3068;SDS011;1545;51.728;8.796;2022-12-18T10:35:18;18.03;;;10.60;;
3068;SDS011;1545;51.728;8.796;2022-12-18T10:40:55;21.60;;;11.40;;
3068;SDS011;1545;51.728;8.796;2022-12-18T10:43:26;26.33;;;11.77;;
3068;SDS011;1545;51.728;8.796;2022-12-18T10:48:39;22.30;;;11.97;;
3068;SDS011;1545;51.728;8.796;2022-12-18T10:53:57;18.57;;;10.40;;
3068;SDS011;1545;51.728;8.796;2022-12-18T10:56:30;18.47;;;10.23;;
3068;SDS011;1545;51.728;8.796;2022-12-18T11:01:25;17.03;;;9.07;;
3068;SDS011;1545;51.728;8.796;2022-12-18T11:06:21;18.40;;;10.20;;
3068;SDS011;1545;51.728;8.796;2022-12-18T11:11:28;17.53;;;9.73;;
3068;SDS011;1545;51.728;8.796;2022-12-18T11:14:04;16.47;;;9.57;;
3068;SDS011;1545;51.728;8.796;2022-12-18T11:16:36;16.13;;;9.33;;
3068;SDS011;1545;51.728;8.796;2022-12-18T11:25:38;17.87;;;9.53;;
3068;SDS011;1545;51.728;8.796;2022-12-18T11:27:39;17.87;;;10.30;;
3068;SDS011;1545;51.728;8.796;2022-12-18T11:30:09;17.23;;;9.63;;
3068;SDS011;1545;51.728;8.796;2022-12-18T11:32:44;16.37;;;8.80;;
3068;SDS011;1545;51.728;8.796;2022-12-18T11:35:47;17.33;;;8.87;;
3068;SDS011;1545;51.728;8.796;2022-12-18T11:40:45;22.83;;;10.70;;
3068;SDS011;1545;51.728;8.796;2022-12-18T11:46:50;19.87;;;10.63;;
3068;SDS011;1545;51.728;8.796;2022-12-18T11:51:31;19.60;;;11.03;;
3068;SDS011;1545;51.728;8.796;2022-12-18T11:54:07;17.87;;;9.50;;
3068;SDS011;1545;51.728;8.796;2022-12-18T11:56:44;15.83;;;8.90;;
3068;SDS011;1545;51.728;8.796;2022-12-18T11:59:17;19.30;;;9.43;;
3068;SDS011;1545;51.728;8.796;2022-12-18T12:01:55;16.77;;;9.00;;
3068;SDS011;1545;51.728;8.796;2022-12-18T12:04:46;16.73;;;9.03;;
3068;SDS011;1545;51.728;8.796;2022-12-18T12:12:37;20.13;;;9.70;;
3068;SDS011;1545;51.728;8.796;2022-12-18T12:18:19;18.73;;;9.30;;
3068;SDS011;1545;51.728;8.796;2022-12-18T12:27:07;17.40;;;8.57;;
3068;SDS011;1545;51.728;8.796;2022-12-18T12:29:49;16.00;;;8.40;;
3068;SDS011;1545;51.728;8.796;2022-12-18T12:32:59;19.33;;;9.07;;
3068;SDS011;1545;51.728;8.796;2022-12-18T12:38:28;19.20;;;8.53;;
3068;SDS011;1545;51.728;8.796;2022-12-18T12:40:57;17.10;;;8.80;;
3068;SDS011;1545;51.728;8.796;2022-12-18T12:43:38;14.50;;;8.00;;
3068;SDS011;1545;51.728;8.796;2022-12-18T12:46:12;15.13;;;8.43;;
3068;SDS011;1545;51.728;8.796;2022-12-18T12:48:45;13.53;;;8.00;;
3068;SDS011;1545;51.728;8.796;2022-12-18T12:53:46;14.40;;;7.60;;
3068;SDS011;1545;51.728;8.796;2022-12-18T12:56:14;13.50;;;7.60;;
3068;SDS011;1545;51.728;8.796;2022-12-18T12:58:54;15.10;;;8.10;;
3068;SDS011;1545;51.728;8.796;2022-12-18T13:01:35;15.77;;;8.00;;
3068;SDS011;1545;51.728;8.796;2022-12-18T13:06:54;13.80;;;7.47;;
3068;SDS011;1545;51.728;8.796;2022-12-18T13:12:35;13.77;;;7.77;;
3068;SDS011;1545;51.728;8.796;2022-12-18T13:36:37;13.60;;;7.77;;
3068;SDS011;1545;51.728;8.796;2022-12-18T13:39:20;14.90;;;7.90;;
3068;SDS011;1545;51.728;8.796;2022-12-18T13:44:40;19.30;;;8.73;;
3068;SDS011;1545;51.728;8.796;2022-12-18T13:47:25;17.47;;;8.00;;
3068;SDS011;1545;51.728;8.796;2022-12-18T13:49:57;17.43;;;8.67;;
3068;SDS011;1545;51.728;8.796;2022-12-18T13:52:25;17.77;;;9.37;;
3068;SDS011;1545;51.728;8.796;2022-12-18T13:55:00;17.33;;;8.83;;
3068;SDS011;1545;51.728;8.796;2022-12-18T13:57:37;21.47;;;9.57;;
3068;SDS011;1545;51.728;8.796;2022-12-18T14:02:50;19.53;;;9.60;;
3068;SDS011;1545;51.728;8.796;2022-12-18T14:08:03;22.90;;;9.77;;
3068;SDS011;1545;51.728;8.796;2022-12-18T14:10:31;16.57;;;9.10;;
3068;SDS011;1545;51.728;8.796;2022-12-18T14:12:57;16.93;;;9.30;;
3068;SDS011;1545;51.728;8.796;2022-12-18T14:15:34;21.03;;;10.33;;
3068;SDS011;1545;51.728;8.796;2022-12-18T14:20:46;20.30;;;10.63;;
3068;SDS011;1545;51.728;8.796;2022-12-18T14:25:53;24.23;;;11.67;;
3068;SDS011;1545;51.728;8.796;2022-12-18T14:28:18;18.83;;;10.83;;
3068;SDS011;1545;51.728;8.796;2022-12-18T14:30:45;24.50;;;11.63;;
3068;SDS011;1545;51.728;8.796;2022-12-18T14:33:12;22.63;;;11.53;;
3068;SDS011;1545;51.728;8.796;2022-12-18T14:36:01;23.07;;;12.30;;
3068;SDS011;1545;51.728;8.796;2022-12-18T14:43:31;23.77;;;12.07;;
3068;SDS011;1545;51.728;8.796;2022-12-18T14:45:59;24.40;;;12.40;;
3068;SDS011;1545;51.728;8.796;2022-12-18T14:48:38;25.73;;;13.33;;
3068;SDS011;1545;51.728;8.796;2022-12-18T14:53:43;24.33;;;12.57;;
3068;SDS011;1545;51.728;8.796;2022-12-18T14:56:17;23.77;;;12.30;;
3068;SDS011;1545;51.728;8.796;2022-12-18T14:58:55;33.10;;;12.80;;
3068;SDS011;1545;51.728;8.796;2022-12-18T15:01:31;27.03;;;13.70;;
3068;SDS011;1545;51.728;8.796;2022-12-18T15:03:59;26.27;;;12.57;;
3068;SDS011;1545;51.728;8.796;2022-12-18T15:06:33;25.03;;;13.07;;
3068;SDS011;1545;51.728;8.796;2022-12-18T15:09:18;26.27;;;12.83;;
3068;SDS011;1545;51.728;8.796;2022-12-18T15:11:55;23.47;;;12.93;;
3068;SDS011;1545;51.728;8.796;2022-12-18T15:14:39;24.60;;;12.97;;
3068;SDS011;1545;51.728;8.796;2022-12-18T15:17:18;24.67;;;13.47;;
3068;SDS011;1545;51.728;8.796;2022-12-18T15:19:46;24.53;;;13.70;;
3068;SDS011;1545;51.728;8.796;2022-12-18T15:24:52;29.87;;;14.10;;
3068;SDS011;1545;51.728;8.796;2022-12-18T15:27:24;28.77;;;13.93;;
3068;SDS011;1545;51.728;8.796;2022-12-18T15:32:35;27.40;;;14.87;;
3068;SDS011;1545;51.728;8.796;2022-12-18T15:35:03;27.30;;;14.23;;
3068;SDS011;1545;51.728;8.796;2022-12-18T15:37:28;26.30;;;14.50;;
3068;SDS011;1545;51.728;8.796;2022-12-18T15:39:54;25.40;;;14.07;;
3068;SDS011;1545;51.728;8.796;2022-12-18T15:42:20;26.37;;;14.50;;
3068;SDS011;1545;51.728;8.796;2022-12-18T15:45:04;29.80;;;14.47;;
3068;SDS011;1545;51.728;8.796;2022-12-18T15:47:30;27.50;;;14.30;;
3068;SDS011;1545;51.728;8.796;2022-12-18T15:49:55;28.60;;;14.90;;
3068;SDS011;1545;51.728;8.796;2022-12-18T15:52:22;28.37;;;15.53;;
3068;SDS011;1545;51.728;8.796;2022-12-18T15:54:50;28.27;;;16.23;;
3068;SDS011;1545;51.728;8.796;2022-12-18T15:57:35;28.30;;;15.37;;
3068;SDS011;1545;51.728;8.796;2022-12-18T16:00:01;32.23;;;16.20;;
3068;SDS011;1545;51.728;8.796;2022-12-18T16:02:26;30.93;;;16.77;;
3068;SDS011;1545;51.728;8.796;2022-12-18T16:04:53;32.03;;;16.47;;
3068;SDS011;1545;51.728;8.796;2022-12-18T16:07:19;32.80;;;16.57;;
3068;SDS011;1545;51.728;8.796;2022-12-18T16:09:45;35.10;;;18.10;;
3068;SDS011;1545;51.728;8.796;2022-12-18T16:12:14;31.63;;;17.03;;
3068;SDS011;1545;51.728;8.796;2022-12-18T16:14:47;38.03;;;18.07;;
3068;SDS011;1545;51.728;8.796;2022-12-18T16:17:13;36.13;;;18.30;;
3068;SDS011;1545;51.728;8.796;2022-12-18T16:19:39;36.37;;;17.90;;
3068;SDS011;1545;51.728;8.796;2022-12-18T16:22:17;35.93;;;18.60;;
3068;SDS011;1545;51.728;8.796;2022-12-18T16:24:49;36.97;;;18.63;;
3068;SDS011;1545;51.728;8.796;2022-12-18T16:27:16;35.73;;;18.33;;
3068;SDS011;1545;51.728;8.796;2022-12-18T16:29:42;38.80;;;19.87;;
3068;SDS011;1545;51.728;8.796;2022-12-18T16:32:08;37.20;;;19.40;;
3068;SDS011;1545;51.728;8.796;2022-12-18T16:34:43;37.53;;;19.00;;
3068;SDS011;1545;51.728;8.796;2022-12-18T16:37:10;42.57;;;20.40;;
3068;SDS011;1545;51.728;8.796;2022-12-18T16:39:37;40.90;;;19.83;;
3068;SDS011;1545;51.728;8.796;2022-12-18T16:42:10;40.03;;;20.43;;
3068;SDS011;1545;51.728;8.796;2022-12-18T16:44:41;38.00;;;19.77;;
3068;SDS011;1545;51.728;8.796;2022-12-18T16:47:07;39.60;;;20.73;;
3068;SDS011;1545;51.728;8.796;2022-12-18T16:49:33;43.07;;;20.20;;
3068;SDS011;1545;51.728;8.796;2022-12-18T16:51:58;42.97;;;20.47;;
3068;SDS011;1545;51.728;8.796;2022-12-18T16:54:24;38.33;;;20.30;;
3068;SDS011;1545;51.728;8.796;2022-12-18T16:56:51;42.93;;;21.13;;
3068;SDS011;1545;51.728;8.796;2022-12-18T16:59:16;42.77;;;22.47;;
3068;SDS011;1545;51.728;8.796;2022-12-18T17:01:42;43.93;;;21.67;;
3068;SDS011;1545;51.728;8.796;2022-12-18T17:04:08;44.03;;;21.57;;
3068;SDS011;1545;51.728;8.796;2022-12-18T17:06:34;48.00;;;21.30;;
3068;SDS011;1545;51.728;8.796;2022-12-18T17:09:04;48.43;;;22.50;;
3068;SDS011;1545;51.728;8.796;2022-12-18T17:11:32;43.97;;;22.63;;
3068;SDS011;1545;51.728;8.796;2022-12-18T17:14:04;44.90;;;23.00;;
3068;SDS011;1545;51.728;8.796;2022-12-18T17:16:30;46.37;;;23.67;;
3068;SDS011;1545;51.728;8.796;2022-12-18T17:18:56;44.67;;;23.30;;
3068;SDS011;1545;51.728;8.796;2022-12-18T17:21:21;52.00;;;23.80;;
3068;SDS011;1545;51.728;8.796;2022-12-18T17:23:47;45.93;;;23.23;;
3068;SDS011;1545;51.728;8.796;2022-12-18T17:26:12;46.60;;;23.30;;
3068;SDS011;1545;51.728;8.796;2022-12-18T17:28:38;48.97;;;23.67;;
3068;SDS011;1545;51.728;8.796;2022-12-18T17:31:16;46.07;;;22.97;;